createdAt,value
2022-12-13T00:02:06.721Z,37.60
2022-12-13T00:04:34.635Z,38.70
2022-12-13T00:07:02.585Z,38.43
2022-12-13T00:09:31.302Z,38.67
2022-12-13T00:11:59.460Z,37.73
2022-12-13T00:14:27.425Z,38.57
2022-12-13T00:16:55.561Z,38.87
2022-12-13T00:19:25.142Z,38.60
2022-12-13T00:21:53.074Z,40.30
2022-12-13T00:24:21.047Z,40.50
2022-12-13T00:26:49.018Z,40.13
2022-12-13T00:29:16.917Z,39.57
2022-12-13T00:31:59.442Z,39.27
2022-12-13T00:34:31.002Z,39.90
2022-12-13T00:37:05.061Z,40.60
2022-12-13T00:39:33.144Z,40.90
2022-12-13T00:42:00.993Z,40.07
2022-12-13T00:44:28.978Z,39.70
2022-12-13T00:46:56.967Z,38.20
2022-12-13T00:49:25.305Z,40.10
2022-12-13T00:51:54.540Z,37.97
2022-12-13T00:54:22.405Z,39.07
2022-12-13T00:56:51.552Z,37.90
2022-12-13T00:59:19.432Z,38.40
2022-12-13T01:01:47.466Z,38.03
2022-12-13T01:04:15.430Z,38.00
2022-12-13T01:06:45.217Z,36.40
2022-12-13T01:09:18.208Z,38.33
2022-12-13T01:11:46.644Z,36.73
2022-12-13T01:14:14.602Z,36.73
2022-12-13T01:16:42.527Z,36.77
2022-12-13T01:19:10.534Z,38.17
2022-12-13T01:21:39.885Z,37.23
2022-12-13T01:24:08.568Z,35.57
2022-12-13T01:26:38.416Z,37.77
2022-12-13T01:29:06.356Z,36.13
2022-12-13T01:31:34.865Z,35.07
2022-12-13T01:34:12.861Z,36.30
2022-12-13T01:36:41.830Z,36.17
2022-12-13T01:39:14.753Z,36.47
2022-12-13T01:41:45.835Z,37.90
2022-12-13T01:44:50.985Z,35.37
2022-12-13T01:47:25.825Z,36.03
2022-12-13T01:49:57.881Z,36.13
2022-12-13T01:52:29.785Z,34.40
2022-12-13T01:55:03.706Z,36.17
2022-12-13T01:57:47.435Z,34.07
2022-12-13T02:00:17.010Z,35.47
2022-12-13T02:02:46.084Z,35.40
2022-12-13T02:05:22.391Z,33.70
2022-12-13T02:07:51.416Z,33.90
2022-12-13T02:10:19.816Z,32.73
2022-12-13T02:12:49.472Z,32.50
2022-12-13T02:15:19.494Z,33.13
2022-12-13T02:17:57.701Z,33.33
2022-12-13T02:20:48.604Z,32.53
2022-12-13T02:23:43.752Z,34.03
2022-12-13T02:26:42.832Z,32.83
2022-12-13T02:29:49.019Z,34.43
2022-12-13T02:32:28.254Z,34.60
2022-12-13T02:35:03.553Z,33.80
2022-12-13T02:37:38.693Z,34.13
2022-12-13T02:40:12.346Z,33.30
2022-12-13T02:42:49.299Z,32.87
2022-12-13T02:45:23.470Z,32.40
2022-12-13T02:47:55.746Z,33.03
2022-12-13T02:50:25.923Z,32.47
2022-12-13T02:52:54.357Z,32.47
2022-12-13T02:55:27.964Z,32.87
2022-12-13T02:57:56.351Z,32.17
2022-12-13T03:00:31.530Z,32.93
2022-12-13T03:03:13.719Z,32.80
2022-12-13T03:06:07.394Z,32.90
2022-12-13T03:08:45.657Z,33.03
2022-12-13T03:11:17.316Z,31.03
2022-12-13T03:13:51.167Z,32.40
2022-12-13T03:16:36.459Z,31.07
2022-12-13T03:19:08.633Z,32.27
2022-12-13T03:21:47.082Z,33.23
2022-12-13T03:24:18.972Z,31.77
2022-12-13T03:26:48.396Z,33.83
2022-12-13T03:29:24.096Z,32.27
2022-12-13T03:31:52.453Z,32.47
2022-12-13T03:34:22.985Z,33.40
2022-12-13T03:36:51.865Z,32.97
2022-12-13T03:39:20.411Z,34.00
2022-12-13T03:41:48.692Z,32.07
2022-12-13T03:44:16.744Z,33.93
2022-12-13T03:46:50.493Z,33.50
2022-12-13T03:49:22.827Z,33.37
2022-12-13T03:51:51.060Z,33.03
2022-12-13T03:54:18.982Z,34.17
2022-12-13T03:56:46.910Z,36.30
2022-12-13T03:59:14.832Z,32.20
2022-12-13T04:01:42.786Z,31.73
2022-12-13T04:04:10.688Z,31.67
2022-12-13T04:06:39.894Z,33.20
2022-12-13T04:09:07.971Z,31.27
2022-12-13T04:11:53.540Z,32.07
2022-12-13T04:14:22.315Z,31.23
2022-12-13T04:16:52.222Z,30.67
2022-12-13T04:19:23.264Z,30.20
2022-12-13T04:21:54.219Z,31.23
2022-12-13T04:24:30.908Z,31.67
2022-12-13T04:27:00.768Z,32.23
2022-12-13T04:29:34.322Z,32.70
2022-12-13T04:32:03.206Z,33.13
2022-12-13T04:34:36.818Z,31.60
2022-12-13T04:37:06.766Z,30.60
2022-12-13T04:39:35.658Z,29.33
2022-12-13T04:42:04.413Z,31.07
2022-12-13T04:44:36.636Z,29.93
2022-12-13T04:47:05.281Z,30.67
2022-12-13T04:49:33.701Z,28.83
2022-12-13T04:52:02.240Z,30.57
2022-12-13T04:54:35.626Z,29.07
2022-12-13T04:57:06.482Z,29.87
2022-12-13T04:59:34.590Z,31.43
2022-12-13T05:02:02.765Z,30.77
2022-12-13T05:04:33.172Z,28.60
2022-12-13T05:07:01.584Z,30.70
2022-12-13T05:09:31.022Z,29.47
2022-12-13T05:12:01.355Z,30.93
2022-12-13T05:14:30.115Z,31.00
2022-12-13T05:16:58.042Z,30.30
2022-12-13T05:19:30.653Z,30.10
2022-12-13T05:22:01.564Z,29.23
2022-12-13T05:24:32.105Z,29.47
2022-12-13T05:27:00.934Z,32.03
2022-12-13T05:29:29.151Z,31.23
2022-12-13T05:31:57.096Z,30.77
2022-12-13T05:34:25.132Z,30.03
2022-12-13T05:36:53.143Z,30.40
2022-12-13T05:39:27.972Z,30.83
2022-12-13T05:42:01.332Z,32.07
2022-12-13T05:44:31.394Z,30.43
2022-12-13T05:46:59.541Z,31.10
2022-12-13T05:49:30.556Z,37.43
2022-12-13T05:51:58.511Z,32.63
2022-12-13T05:54:26.462Z,35.27
2022-12-13T05:56:54.452Z,33.33
2022-12-13T05:59:23.756Z,37.47
2022-12-13T06:01:51.730Z,32.97
2022-12-13T06:04:22.246Z,31.10
2022-12-13T06:06:51.650Z,33.70
2022-12-13T06:09:20.050Z,33.80
2022-12-13T06:11:48.246Z,35.53
2022-12-13T06:14:21.541Z,34.20
2022-12-13T06:16:52.834Z,32.13
2022-12-13T06:19:21.004Z,29.00
2022-12-13T06:21:48.959Z,28.57
2022-12-13T06:24:17.762Z,26.63
2022-12-13T06:26:46.350Z,27.47
2022-12-13T06:29:22.601Z,25.87
2022-12-13T06:32:01.000Z,26.40
2022-12-13T06:34:29.904Z,25.80
2022-12-13T06:36:57.945Z,25.73
2022-12-13T06:39:26.058Z,26.30
2022-12-13T06:42:01.784Z,25.93
2022-12-13T06:44:29.685Z,25.27
2022-12-13T06:47:12.156Z,27.07
2022-12-13T06:49:43.238Z,26.37
2022-12-13T06:52:13.272Z,25.93
2022-12-13T06:54:41.361Z,26.27
2022-12-13T06:57:09.455Z,25.47
2022-12-13T06:59:37.498Z,23.90
2022-12-13T07:02:07.267Z,25.57
2022-12-13T07:04:53.706Z,25.73
2022-12-13T07:07:21.678Z,25.53
2022-12-13T07:09:49.673Z,24.67
2022-12-13T07:12:18.487Z,23.77
2022-12-13T07:14:46.411Z,23.60
2022-12-13T07:17:32.894Z,24.67
2022-12-13T07:20:03.159Z,23.03
2022-12-13T07:22:34.694Z,23.63
2022-12-13T07:25:04.783Z,23.80
2022-12-13T07:27:32.777Z,23.47
2022-12-13T07:30:01.014Z,22.80
2022-12-13T07:32:30.403Z,23.47
2022-12-13T07:34:58.297Z,22.50
2022-12-13T07:37:29.936Z,24.23
2022-12-13T07:40:04.031Z,23.43
2022-12-13T07:42:34.208Z,23.07
2022-12-13T07:45:02.085Z,22.07
2022-12-13T07:47:33.168Z,22.77
2022-12-13T07:50:01.454Z,22.40
2022-12-13T07:52:29.760Z,23.07
2022-12-13T07:54:57.718Z,23.00
2022-12-13T07:57:25.577Z,23.27
2022-12-13T07:59:53.458Z,22.70
2022-12-13T08:02:21.370Z,23.03
2022-12-13T08:04:54.645Z,22.80
2022-12-13T08:07:23.366Z,22.57
2022-12-13T08:09:53.250Z,22.13
2022-12-13T08:12:22.405Z,23.27
2022-12-13T08:14:53.474Z,21.40
2022-12-13T08:17:22.210Z,21.73
2022-12-13T08:19:51.591Z,22.57
2022-12-13T08:22:24.241Z,22.70
2022-12-13T08:24:52.796Z,22.57
2022-12-13T08:27:20.743Z,21.13
2022-12-13T08:29:48.731Z,22.87
2022-12-13T08:32:16.844Z,21.17
2022-12-13T08:34:45.539Z,22.50
2022-12-13T08:37:15.178Z,20.97
2022-12-13T08:39:53.686Z,20.50
2022-12-13T08:42:21.817Z,19.73
2022-12-13T08:44:51.229Z,19.90
2022-12-13T08:47:24.432Z,20.03
2022-12-13T08:49:55.137Z,18.30
2022-12-13T08:52:24.795Z,19.83
2022-12-13T08:54:53.101Z,19.43
2022-12-13T08:57:21.197Z,19.10
2022-12-13T08:59:49.120Z,18.57
2022-12-13T09:02:17.156Z,19.57
2022-12-13T09:04:45.298Z,18.57
2022-12-13T09:07:14.815Z,19.33
2022-12-13T09:09:44.204Z,19.13
2022-12-13T09:12:30.896Z,19.13
2022-12-13T09:15:06.237Z,17.20
2022-12-13T09:17:52.572Z,19.48
2022-12-13T09:20:28.852Z,17.50
2022-12-13T09:23:01.837Z,17.37
2022-12-13T09:25:36.760Z,17.93
2022-12-13T09:28:07.497Z,18.43
2022-12-13T09:30:35.749Z,18.90
2022-12-13T09:33:28.357Z,17.63
2022-12-13T09:35:51.883Z,17.97
2022-12-13T09:38:19.978Z,18.60
2022-12-13T09:40:58.952Z,19.87
2022-12-13T09:43:32.596Z,19.57
2022-12-13T09:46:13.477Z,18.53
2022-12-13T09:48:53.476Z,18.60
2022-12-13T09:51:43.392Z,18.40
2022-12-13T09:54:20.315Z,17.17
2022-12-13T09:56:51.820Z,16.58
2022-12-13T09:59:23.104Z,17.00
2022-12-13T10:01:51.208Z,17.80
2022-12-13T10:04:19.866Z,16.35
2022-12-13T10:06:48.095Z,14.63
2022-12-13T10:09:16.153Z,14.77
2022-12-13T10:11:53.535Z,15.60
2022-12-13T10:14:27.689Z,16.13
2022-12-13T10:17:00.558Z,15.60
2022-12-13T10:19:34.256Z,15.50
2022-12-13T10:22:05.686Z,15.53
2022-12-13T10:24:50.498Z,15.87
2022-12-13T10:27:21.763Z,14.67
2022-12-13T10:30:06.380Z,15.03
2022-12-13T10:32:43.241Z,15.53
2022-12-13T10:35:23.715Z,14.03
2022-12-13T10:37:53.018Z,14.87
2022-12-13T10:40:33.425Z,15.27
2022-12-13T10:43:14.431Z,13.48
2022-12-13T10:45:43.199Z,13.27
2022-12-13T10:48:22.218Z,13.93
2022-12-13T10:51:00.078Z,14.87
2022-12-13T10:53:32.328Z,13.77
2022-12-13T10:56:02.645Z,14.30
2022-12-13T10:58:41.323Z,14.00
2022-12-13T11:01:12.347Z,13.40
2022-12-13T11:03:43.188Z,14.07
2022-12-13T11:06:15.563Z,13.80
2022-12-13T11:08:43.474Z,14.03
2022-12-13T11:11:16.445Z,15.00
2022-12-13T11:13:48.201Z,13.87
2022-12-13T11:16:27.309Z,13.53
2022-12-13T11:19:03.506Z,13.97
2022-12-13T11:21:34.691Z,14.30
2022-12-13T11:24:04.939Z,14.00
2022-12-13T11:26:35.961Z,14.30
2022-12-13T11:29:35.960Z,13.47
2022-12-13T11:32:22.741Z,13.33
2022-12-13T11:34:59.505Z,15.20
2022-12-13T11:37:31.323Z,15.07
2022-12-13T11:40:04.081Z,13.77
2022-12-13T11:42:38.685Z,15.07
2022-12-13T11:45:23.228Z,14.90
2022-12-13T11:47:58.696Z,15.13
2022-12-13T11:50:34.050Z,14.20
2022-12-13T11:53:19.944Z,14.90
2022-12-13T11:55:54.346Z,15.07
2022-12-13T12:01:22.441Z,15.50
2022-12-13T12:03:56.152Z,14.60
2022-12-13T12:06:26.257Z,15.50
2022-12-13T12:08:58.461Z,13.87
2022-12-13T12:11:33.510Z,13.90
2022-12-13T12:14:07.685Z,14.93
2022-12-13T12:16:41.084Z,13.77
2022-12-13T12:19:14.478Z,14.03
2022-12-13T12:22:13.581Z,15.13
2022-12-13T12:25:05.772Z,14.97
2022-12-13T12:27:43.426Z,13.57
2022-12-13T12:30:22.899Z,14.47
2022-12-13T12:32:58.132Z,14.77
2022-12-13T12:35:46.319Z,13.83
2022-12-13T12:38:30.932Z,14.00
2022-12-13T12:41:25.547Z,14.33
2022-12-13T12:44:01.345Z,15.13
2022-12-13T12:47:19.213Z,14.40
2022-12-13T12:49:57.622Z,14.53
2022-12-13T12:52:37.874Z,14.50
2022-12-13T12:55:14.561Z,14.97
2022-12-13T12:57:51.025Z,14.43
2022-12-13T13:00:22.643Z,14.57
2022-12-13T13:03:01.758Z,15.07
2022-12-13T13:05:36.659Z,15.40
2022-12-13T13:08:12.544Z,14.00
2022-12-13T13:10:50.167Z,15.10
2022-12-13T13:13:36.179Z,15.50
2022-12-13T13:16:38.440Z,17.30
2022-12-13T13:19:07.028Z,17.03
2022-12-13T13:21:45.816Z,15.67
2022-12-13T13:24:21.731Z,15.70
2022-12-13T13:26:52.202Z,16.37
2022-12-13T13:29:32.095Z,14.77
2022-12-13T13:32:02.569Z,14.73
2022-12-13T13:34:32.923Z,15.47
2022-12-13T13:37:01.607Z,15.83
2022-12-13T13:39:56.593Z,15.10
2022-12-13T13:42:26.019Z,14.90
2022-12-13T13:45:03.326Z,14.50
2022-12-13T13:47:40.431Z,14.87
2022-12-13T13:50:37.008Z,14.27
2022-12-13T13:53:30.947Z,15.03
2022-12-13T13:56:11.641Z,16.53
2022-12-13T13:59:15.252Z,15.97
2022-12-13T14:02:12.728Z,15.17
2022-12-13T14:05:15.357Z,15.37
2022-12-13T14:08:20.432Z,14.77
2022-12-13T14:11:04.399Z,15.27
2022-12-13T14:14:28.829Z,16.00
2022-12-13T14:17:33.596Z,16.30
2022-12-13T14:20:36.644Z,16.37
2022-12-13T14:23:11.373Z,17.53
2022-12-13T14:25:52.406Z,17.27
2022-12-13T14:28:34.408Z,18.20
2022-12-13T14:31:02.832Z,18.47
2022-12-13T14:33:30.958Z,17.77
2022-12-13T14:36:03.567Z,18.07
2022-12-13T14:38:32.851Z,17.10
2022-12-13T14:41:02.314Z,22.67
2022-12-13T14:43:33.277Z,19.90
2022-12-13T14:46:03.896Z,16.43
2022-12-13T14:48:36.411Z,17.77
2022-12-13T14:51:05.704Z,17.07
2022-12-13T14:53:41.222Z,17.70
2022-12-13T14:56:10.989Z,17.93
2022-12-13T14:58:59.400Z,17.87
2022-12-13T15:01:30.222Z,18.37
2022-12-13T15:04:20.434Z,18.03
2022-12-13T15:06:50.487Z,18.73
2022-12-13T15:09:18.699Z,17.37
2022-12-13T15:11:47.538Z,17.53
2022-12-13T15:14:19.728Z,18.00
2022-12-13T15:16:51.658Z,16.57
2022-12-13T15:19:32.119Z,17.17
2022-12-13T15:22:05.392Z,17.37
2022-12-13T15:24:35.576Z,17.37
2022-12-13T15:27:04.668Z,18.13
2022-12-13T15:29:35.970Z,17.37
2022-12-13T15:32:05.526Z,18.13
2022-12-13T15:34:36.064Z,17.13
2022-12-13T15:37:06.612Z,18.07
2022-12-13T15:39:39.516Z,17.23
2022-12-13T15:42:16.673Z,16.53
2022-12-13T15:44:53.763Z,16.90
2022-12-13T15:47:28.697Z,17.10
2022-12-13T15:49:59.582Z,17.40
2022-12-13T15:52:35.472Z,17.27
2022-12-13T15:55:28.457Z,16.93
2022-12-13T15:57:59.297Z,17.73
2022-12-13T16:00:31.877Z,17.43
2022-12-13T16:03:09.493Z,17.10
2022-12-13T16:05:41.238Z,17.70
2022-12-13T16:08:24.031Z,17.20
2022-12-13T16:10:54.129Z,16.83
2022-12-13T16:13:27.257Z,18.53
2022-12-13T16:16:00.215Z,18.40
2022-12-13T16:18:44.691Z,18.30
2022-12-13T16:21:12.744Z,23.33
2022-12-13T16:23:41.080Z,18.43
2022-12-13T16:26:23.457Z,18.73
2022-12-13T16:28:51.676Z,18.80
2022-12-13T16:31:23.923Z,18.37
2022-12-13T16:33:52.472Z,17.40
2022-12-13T16:36:20.587Z,17.63
2022-12-13T16:38:48.628Z,17.23
2022-12-13T16:41:16.688Z,19.53
2022-12-13T16:43:53.356Z,17.43
2022-12-13T16:47:13.210Z,18.00
2022-12-13T16:49:22.919Z,18.37
2022-12-13T16:51:51.433Z,18.50
2022-12-13T16:54:21.008Z,17.30
2022-12-13T16:56:49.406Z,17.30
2022-12-13T16:59:19.061Z,17.03
2022-12-13T17:01:48.739Z,17.13
2022-12-13T17:04:21.114Z,16.70
2022-12-13T17:06:51.434Z,18.57
2022-12-13T17:09:24.169Z,17.70
2022-12-13T17:11:52.173Z,19.63
2022-12-13T17:14:20.124Z,25.60
2022-12-13T17:16:49.555Z,17.23
2022-12-13T17:19:22.824Z,18.67
2022-12-13T17:21:51.290Z,18.17
2022-12-13T17:24:19.319Z,19.47
2022-12-13T17:26:54.241Z,17.90
2022-12-13T17:29:23.941Z,16.10
2022-12-13T17:31:54.182Z,17.50
2022-12-13T17:34:22.121Z,17.00
2022-12-13T17:36:50.073Z,17.33
2022-12-13T17:39:18.218Z,16.40
2022-12-13T17:41:54.770Z,16.90
2022-12-13T17:44:24.857Z,17.07
2022-12-13T17:46:55.777Z,16.83
2022-12-13T17:49:26.937Z,17.87
2022-12-13T17:51:55.509Z,17.07
2022-12-13T17:54:25.215Z,18.50
2022-12-13T17:56:54.534Z,17.27
2022-12-13T17:59:22.622Z,17.57
2022-12-13T18:01:51.020Z,17.50
2022-12-13T18:04:20.661Z,18.60
2022-12-13T18:06:49.002Z,17.20
2022-12-13T18:09:16.924Z,18.53
2022-12-13T18:11:45.047Z,17.23
2022-12-13T18:14:13.051Z,16.40
2022-12-13T18:16:41.068Z,17.17
2022-12-13T18:19:11.756Z,19.07
2022-12-13T18:21:43.135Z,18.73
2022-12-13T18:24:12.101Z,18.43
2022-12-13T18:26:40.202Z,16.77
2022-12-13T18:29:12.029Z,17.07
2022-12-13T18:31:40.982Z,16.57
2022-12-13T18:34:10.002Z,15.93
2022-12-13T18:36:39.698Z,19.30
2022-12-13T18:39:09.206Z,22.60
2022-12-13T18:41:40.359Z,17.33
2022-12-13T18:44:08.976Z,16.77
2022-12-13T18:46:40.424Z,15.70
2022-12-13T18:49:11.847Z,15.13
2022-12-13T18:51:41.295Z,15.17
2022-12-13T18:54:11.117Z,13.63
2022-12-13T18:56:48.873Z,15.10
2022-12-13T18:59:16.919Z,13.67
2022-12-13T19:01:44.977Z,14.40
2022-12-13T19:04:12.943Z,12.77
2022-12-13T19:06:40.933Z,12.40
2022-12-13T19:09:10.326Z,13.60
2022-12-13T19:11:38.431Z,13.20
2022-12-13T19:14:06.404Z,15.50
2022-12-13T19:16:34.459Z,12.33
2022-12-13T19:19:02.571Z,12.27
2022-12-13T19:21:30.662Z,13.00
2022-12-13T19:23:59.994Z,12.27
2022-12-13T19:26:30.532Z,13.57
2022-12-13T19:29:00.789Z,12.67
2022-12-13T19:31:32.198Z,12.27
2022-12-13T19:34:01.683Z,12.10
2022-12-13T19:36:31.475Z,12.97
2022-12-13T19:38:59.522Z,12.20
2022-12-13T19:41:29.703Z,11.47
2022-12-13T19:43:57.715Z,11.83
2022-12-13T19:46:25.749Z,12.10
2022-12-13T19:48:53.740Z,11.07
2022-12-13T19:51:21.803Z,13.23
2022-12-13T19:53:49.885Z,13.23
2022-12-13T19:56:19.609Z,11.63
2022-12-13T19:58:49.865Z,12.90
2022-12-13T20:01:21.076Z,12.60
2022-12-13T20:03:54.561Z,12.57
2022-12-13T20:06:24.089Z,13.83
2022-12-13T20:08:53.150Z,12.77
2022-12-13T20:11:22.971Z,12.40
2022-12-13T20:13:56.112Z,12.33
2022-12-13T20:16:27.241Z,12.37
2022-12-13T20:18:59.962Z,12.90
2022-12-13T20:21:28.831Z,12.13
2022-12-13T20:23:59.697Z,12.20
2022-12-13T20:26:29.760Z,12.03
2022-12-13T20:29:25.138Z,13.97
2022-12-13T20:32:16.297Z,13.43
2022-12-13T20:34:59.877Z,11.77
2022-12-13T20:37:28.506Z,12.43
2022-12-13T20:39:58.150Z,12.73
2022-12-13T20:42:26.093Z,13.93
2022-12-13T20:44:55.305Z,12.50
2022-12-13T20:47:23.324Z,13.03
2022-12-13T20:49:51.235Z,12.20
2022-12-13T20:52:19.180Z,11.93
2022-12-13T20:54:50.202Z,11.47
2022-12-13T20:57:18.223Z,13.07
2022-12-13T20:59:53.888Z,12.53
2022-12-13T21:02:23.200Z,12.47
2022-12-13T21:04:51.238Z,12.63
2022-12-13T21:07:39.330Z,13.23
2022-12-13T21:10:08.113Z,12.47
2022-12-13T21:12:36.050Z,14.90
2022-12-13T21:15:04.178Z,11.50
2022-12-13T21:17:33.574Z,11.73
2022-12-13T21:20:02.379Z,11.13
2022-12-13T21:22:32.070Z,11.10
2022-12-13T21:25:02.180Z,12.10
2022-12-13T21:27:30.473Z,11.60
2022-12-13T21:29:59.641Z,11.17
2022-12-13T21:32:27.540Z,10.20
2022-12-13T21:34:57.342Z,11.70
2022-12-13T21:37:25.391Z,10.73
2022-12-13T21:39:53.230Z,10.83
2022-12-13T21:42:21.237Z,10.23
2022-12-13T21:44:49.595Z,10.93
2022-12-13T21:47:17.687Z,11.10
2022-12-13T21:49:48.654Z,14.23
2022-12-13T21:52:18.526Z,10.67
2022-12-13T21:54:46.488Z,11.20
2022-12-13T21:57:32.050Z,11.13
2022-12-13T22:00:00.081Z,11.00
2022-12-13T22:02:28.070Z,10.40
2022-12-13T22:04:58.102Z,10.83
2022-12-13T22:07:29.328Z,10.60
2022-12-13T22:10:03.378Z,9.87
2022-12-13T22:12:36.639Z,10.27
2022-12-13T22:15:05.881Z,10.13
2022-12-13T22:17:37.528Z,10.43
2022-12-13T22:20:06.914Z,10.03
2022-12-13T22:22:36.386Z,10.33
2022-12-13T22:25:04.533Z,10.10
2022-12-13T22:27:32.496Z,10.63
2022-12-13T22:30:00.726Z,10.03
2022-12-13T22:32:30.937Z,10.37
2022-12-13T22:34:59.002Z,10.30
2022-12-13T22:37:27.201Z,10.07
2022-12-13T22:39:56.538Z,10.10
2022-12-13T22:42:24.531Z,9.27
2022-12-13T22:44:52.467Z,9.97
2022-12-13T22:47:20.542Z,9.57
2022-12-13T22:49:49.276Z,9.93
2022-12-13T22:52:17.431Z,8.37
2022-12-13T22:54:52.078Z,9.17
2022-12-13T22:57:21.434Z,9.90
2022-12-13T22:59:49.449Z,9.23
2022-12-13T23:02:17.699Z,8.87
2022-12-13T23:04:45.774Z,10.00
2022-12-13T23:07:13.711Z,11.87
2022-12-13T23:09:44.688Z,11.13
2022-12-13T23:12:30.384Z,11.07
2022-12-13T23:14:59.777Z,11.40
2022-12-13T23:17:27.799Z,11.53
2022-12-13T23:19:55.955Z,10.67
2022-12-13T23:22:26.328Z,9.03
2022-12-13T23:24:54.662Z,8.87
2022-12-13T23:27:24.414Z,8.70
2022-12-13T23:29:54.595Z,8.67
2022-12-13T23:32:23.938Z,8.90
2022-12-13T23:34:52.266Z,8.53
2022-12-13T23:37:20.265Z,8.60
2022-12-13T23:39:48.257Z,8.73
2022-12-13T23:42:16.143Z,8.20
2022-12-13T23:44:44.033Z,8.60
2022-12-13T23:47:12.090Z,8.63
2022-12-13T23:49:41.466Z,8.87
2022-12-13T23:52:09.418Z,7.70
2022-12-13T23:54:37.436Z,9.10
2022-12-13T23:57:07.833Z,8.53
2022-12-13T23:59:35.973Z,8.77
